createdAt,value
2019-05-10T00:05:41.526Z,100.00
2019-05-10T00:16:15.161Z,100.00
2019-05-10T00:26:48.525Z,100.00
2019-05-10T00:37:22.273Z,100.00
2019-05-10T00:47:55.844Z,100.00
2019-05-10T00:58:29.661Z,100.00
2019-05-10T01:09:03.462Z,100.00
2019-05-10T01:19:37.012Z,100.00
2019-05-10T01:30:10.571Z,100.00
2019-05-10T01:40:44.038Z,100.00
2019-05-10T01:51:17.541Z,100.00
2019-05-10T02:01:51.219Z,100.00
2019-05-10T02:12:24.663Z,100.00
2019-05-10T02:22:58.129Z,100.00
2019-05-10T02:33:31.980Z,100.00
2019-05-10T02:44:05.725Z,100.00
2019-05-10T02:54:39.202Z,100.00
2019-05-10T03:05:14.071Z,100.00
2019-05-10T03:15:50.463Z,100.00
2019-05-10T03:26:23.334Z,100.00
2019-05-10T03:36:56.173Z,100.00
2019-05-10T03:47:29.958Z,100.00
2019-05-10T03:58:03.521Z,100.00
2019-05-10T04:08:36.986Z,100.00
2019-05-10T04:19:10.521Z,100.00
2019-05-10T04:29:44.360Z,100.00
2019-05-10T04:40:17.841Z,100.00
2019-05-10T04:50:51.647Z,100.00
2019-05-10T05:01:25.290Z,100.00
2019-05-10T05:11:58.073Z,100.00
2019-05-10T05:22:31.541Z,100.00
2019-05-10T05:33:05.030Z,100.00
2019-05-10T05:43:45.744Z,100.00
2019-05-10T05:54:14.971Z,100.00
2019-05-10T06:04:50.001Z,100.00
2019-05-10T06:15:29.085Z,100.00
2019-05-10T06:25:58.454Z,100.00
2019-05-10T06:36:32.024Z,100.00
2019-05-10T06:47:08.213Z,100.00
2019-05-10T06:57:41.137Z,100.00
2019-05-10T07:08:19.953Z,100.00
2019-05-10T07:18:49.147Z,100.00
2019-05-10T07:29:29.924Z,96.36
2019-05-10T07:39:58.656Z,92.06
2019-05-10T07:50:32.210Z,91.47
2019-05-10T08:01:05.768Z,96.83
2019-05-10T08:11:39.342Z,100.00
2019-05-10T08:22:14.798Z,100.00
2019-05-10T08:32:47.647Z,97.74
2019-05-10T08:43:22.240Z,98.03
2019-05-10T08:53:58.397Z,100.00
2019-05-10T09:04:41.632Z,94.44
2019-05-10T09:15:10.181Z,82.04
2019-05-10T09:25:42.736Z,74.17
2019-05-10T09:36:16.474Z,71.88
2019-05-10T09:46:52.311Z,69.82
2019-05-10T09:57:27.716Z,68.03
2019-05-10T10:08:03.712Z,59.98
2019-05-10T10:18:37.102Z,61.05
2019-05-10T10:29:10.772Z,65.67
2019-05-10T10:39:44.237Z,59.54
2019-05-10T10:50:18.040Z,62.93
2019-05-10T11:00:55.532Z,61.31
2019-05-10T11:11:32.498Z,67.48
2019-05-10T11:22:09.497Z,65.41
2019-05-10T11:32:41.809Z,61.50
2019-05-10T11:43:17.398Z,55.06
2019-05-10T11:53:55.409Z,53.88
2019-05-10T12:04:37.998Z,52.30
2019-05-10T12:15:04.420Z,48.09
2019-05-10T12:25:51.490Z,50.28
2019-05-10T12:36:22.359Z,49.79
2019-05-10T12:46:47.033Z,49.14
2019-05-10T12:57:20.742Z,51.29
2019-05-10T13:07:53.634Z,50.77
2019-05-10T13:18:48.274Z,54.38
2019-05-10T13:29:08.114Z,57.60
2019-05-10T13:39:37.593Z,57.24
2019-05-10T13:50:10.316Z,57.79
2019-05-10T14:00:44.021Z,56.31
2019-05-10T14:11:17.652Z,58.22
2019-05-10T14:21:50.562Z,57.68
2019-05-10T14:32:24.206Z,57.60
2019-05-10T14:42:57.572Z,57.40
2019-05-10T14:53:31.123Z,60.26
2019-05-10T15:04:04.553Z,61.57
2019-05-10T15:14:38.222Z,59.65
2019-05-10T15:25:11.801Z,60.43
2019-05-10T15:35:45.721Z,58.43
2019-05-10T15:46:23.248Z,60.57
2019-05-10T15:56:56.094Z,61.90
2019-05-10T16:07:29.496Z,62.63
2019-05-10T16:18:02.402Z,65.43
2019-05-10T16:28:36.068Z,68.80
2019-05-10T16:39:09.632Z,68.09
2019-05-10T16:49:47.650Z,68.45
2019-05-10T17:00:19.388Z,67.76
2019-05-10T17:10:52.880Z,68.33
2019-05-10T17:21:26.320Z,70.03
2019-05-10T17:31:59.955Z,67.56
2019-05-10T17:42:35.618Z,68.46
2019-05-10T17:53:08.485Z,68.59
2019-05-10T18:03:42.174Z,67.63
2019-05-10T18:14:18.059Z,67.47
2019-05-10T18:24:51.333Z,68.30
2019-05-10T18:35:24.829Z,67.82
2019-05-10T18:46:01.335Z,69.16
2019-05-10T18:56:34.025Z,69.82
2019-05-10T19:07:10.277Z,70.64
2019-05-10T19:17:45.827Z,71.12
2019-05-10T19:28:20.883Z,71.66
2019-05-10T19:38:53.311Z,72.38
2019-05-10T19:49:27.927Z,72.81
2019-05-10T20:00:01.597Z,73.40
2019-05-10T20:10:36.223Z,75.28
2019-05-10T20:21:09.924Z,73.53
2019-05-10T20:31:43.869Z,73.92
2019-05-10T20:42:17.376Z,73.00
2019-05-10T20:52:50.128Z,74.00
2019-05-10T21:03:23.706Z,74.07
2019-05-10T21:13:57.970Z,74.77
2019-05-10T21:24:31.340Z,76.72
2019-05-10T21:35:04.853Z,78.61
2019-05-10T21:45:38.435Z,79.65
2019-05-10T21:56:11.996Z,78.55
2019-05-10T22:06:45.351Z,77.69
2019-05-10T22:17:18.838Z,79.09
2019-05-10T22:27:52.485Z,77.81
2019-05-10T22:38:25.986Z,78.43
2019-05-10T22:48:59.449Z,79.85
2019-05-10T22:59:32.215Z,81.07
2019-05-10T23:10:05.733Z,81.40
2019-05-10T23:20:39.405Z,80.24
2019-05-10T23:41:51.576Z,79.43
2019-05-10T23:52:25.144Z,81.25
